sensor_id;sensor_type;location;lat;lon;timestamp;P1;durP1;ratioP1;P2;durP2;ratioP2
41829;SDS011;38614;43.472;23.936;2024-03-17T00:02:04;23.42;;;13.10;;
41829;SDS011;38614;43.472;23.936;2024-03-17T00:04:51;28.92;;;15.23;;
41829;SDS011;38614;43.472;23.936;2024-03-17T00:07:37;36.35;;;16.00;;
41829;SDS011;38614;43.472;23.936;2024-03-17T00:10:24;30.88;;;16.38;;
41829;SDS011;38614;43.472;23.936;2024-03-17T00:13:11;22.15;;;11.98;;
41829;SDS011;38614;43.472;23.936;2024-03-17T00:15:57;52.58;;;18.30;;
41829;SDS011;38614;43.472;23.936;2024-03-17T00:18:44;57.65;;;22.13;;
41829;SDS011;38614;43.472;23.936;2024-03-17T00:21:35;66.68;;;24.65;;
41829;SDS011;38614;43.472;23.936;2024-03-17T00:24:22;52.03;;;19.75;;
41829;SDS011;38614;43.472;23.936;2024-03-17T00:27:09;45.83;;;18.85;;
41829;SDS011;38614;43.472;23.936;2024-03-17T00:29:57;34.80;;;14.90;;
41829;SDS011;38614;43.472;23.936;2024-03-17T00:32:44;33.92;;;13.25;;
41829;SDS011;38614;43.472;23.936;2024-03-17T00:35:33;27.65;;;12.57;;
41829;SDS011;38614;43.472;23.936;2024-03-17T00:38:20;25.75;;;12.73;;
41829;SDS011;38614;43.472;23.936;2024-03-17T00:41:06;20.73;;;11.00;;
41829;SDS011;38614;43.472;23.936;2024-03-17T00:43:53;24.45;;;12.10;;
41829;SDS011;38614;43.472;23.936;2024-03-17T00:46:39;23.40;;;11.35;;
41829;SDS011;38614;43.472;23.936;2024-03-17T00:49:28;31.60;;;12.52;;
41829;SDS011;38614;43.472;23.936;2024-03-17T00:52:15;26.63;;;13.07;;
41829;SDS011;38614;43.472;23.936;2024-03-17T00:55:01;33.35;;;15.30;;
41829;SDS011;38614;43.472;23.936;2024-03-17T00:57:48;32.53;;;13.50;;
41829;SDS011;38614;43.472;23.936;2024-03-17T01:00:35;33.75;;;13.05;;
41829;SDS011;38614;43.472;23.936;2024-03-17T01:03:21;26.92;;;11.82;;
41829;SDS011;38614;43.472;23.936;2024-03-17T01:06:08;32.33;;;13.65;;
41829;SDS011;38614;43.472;23.936;2024-03-17T01:08:58;22.85;;;11.13;;
41829;SDS011;38614;43.472;23.936;2024-03-17T01:11:45;25.50;;;10.52;;
41829;SDS011;38614;43.472;23.936;2024-03-17T01:14:31;20.50;;;9.93;;
41829;SDS011;38614;43.472;23.936;2024-03-17T01:17:19;17.08;;;9.95;;
41829;SDS011;38614;43.472;23.936;2024-03-17T01:20:06;18.20;;;9.52;;
41829;SDS011;38614;43.472;23.936;2024-03-17T01:22:53;24.30;;;8.80;;
41829;SDS011;38614;43.472;23.936;2024-03-17T01:25:40;29.10;;;11.02;;
41829;SDS011;38614;43.472;23.936;2024-03-17T01:28:29;17.50;;;9.45;;
41829;SDS011;38614;43.472;23.936;2024-03-17T01:31:16;28.55;;;11.23;;
41829;SDS011;38614;43.472;23.936;2024-03-17T01:34:02;18.15;;;9.80;;
41829;SDS011;38614;43.472;23.936;2024-03-17T01:36:49;18.63;;;9.15;;
41829;SDS011;38614;43.472;23.936;2024-03-17T01:39:35;29.35;;;11.13;;
41829;SDS011;38614;43.472;23.936;2024-03-17T01:42:22;22.40;;;10.65;;
41829;SDS011;38614;43.472;23.936;2024-03-17T01:45:20;17.90;;;9.95;;
41829;SDS011;38614;43.472;23.936;2024-03-17T01:48:13;25.97;;;11.00;;
41829;SDS011;38614;43.472;23.936;2024-03-17T01:51:05;24.17;;;9.95;;
41829;SDS011;38614;43.472;23.936;2024-03-17T01:53:52;21.20;;;9.48;;
41829;SDS011;38614;43.472;23.936;2024-03-17T01:56:39;22.73;;;11.77;;
41829;SDS011;38614;43.472;23.936;2024-03-17T01:59:26;18.27;;;9.93;;
41829;SDS011;38614;43.472;23.936;2024-03-17T02:02:12;19.33;;;10.38;;
41829;SDS011;38614;43.472;23.936;2024-03-17T02:04:59;20.23;;;10.00;;
41829;SDS011;38614;43.472;23.936;2024-03-17T02:07:45;22.80;;;11.10;;
41829;SDS011;38614;43.472;23.936;2024-03-17T02:10:32;22.63;;;12.25;;
41829;SDS011;38614;43.472;23.936;2024-03-17T02:13:20;18.90;;;10.55;;
41829;SDS011;38614;43.472;23.936;2024-03-17T02:16:09;23.63;;;10.82;;
41829;SDS011;38614;43.472;23.936;2024-03-17T02:19:14;22.83;;;10.10;;
41829;SDS011;38614;43.472;23.936;2024-03-17T02:22:01;24.23;;;8.88;;
41829;SDS011;38614;43.472;23.936;2024-03-17T02:24:47;18.52;;;9.20;;
41829;SDS011;38614;43.472;23.936;2024-03-17T02:27:37;18.83;;;9.65;;
41829;SDS011;38614;43.472;23.936;2024-03-17T02:30:23;18.58;;;9.10;;
41829;SDS011;38614;43.472;23.936;2024-03-17T02:33:10;20.92;;;9.65;;
41829;SDS011;38614;43.472;23.936;2024-03-17T02:35:59;24.05;;;9.30;;
41829;SDS011;38614;43.472;23.936;2024-03-17T02:38:46;15.50;;;7.82;;
41829;SDS011;38614;43.472;23.936;2024-03-17T02:41:51;17.02;;;8.45;;
41829;SDS011;38614;43.472;23.936;2024-03-17T02:44:38;19.98;;;8.98;;
41829;SDS011;38614;43.472;23.936;2024-03-17T02:47:24;21.55;;;9.55;;
41829;SDS011;38614;43.472;23.936;2024-03-17T02:50:13;16.55;;;8.50;;
41829;SDS011;38614;43.472;23.936;2024-03-17T02:53:00;23.42;;;8.80;;
41829;SDS011;38614;43.472;23.936;2024-03-17T02:55:49;20.75;;;9.48;;
41829;SDS011;38614;43.472;23.936;2024-03-17T02:58:35;19.38;;;9.07;;
41829;SDS011;38614;43.472;23.936;2024-03-17T03:01:22;25.98;;;8.68;;
41829;SDS011;38614;43.472;23.936;2024-03-17T03:04:09;23.60;;;10.50;;
41829;SDS011;38614;43.472;23.936;2024-03-17T03:06:56;29.50;;;13.93;;
41829;SDS011;38614;43.472;23.936;2024-03-17T03:09:42;30.38;;;16.00;;
41829;SDS011;38614;43.472;23.936;2024-03-17T03:12:29;27.92;;;13.73;;
41829;SDS011;38614;43.472;23.936;2024-03-17T03:15:15;23.23;;;12.05;;
41829;SDS011;38614;43.472;23.936;2024-03-17T03:18:02;29.70;;;16.35;;
41829;SDS011;38614;43.472;23.936;2024-03-17T03:20:52;22.02;;;12.18;;
41829;SDS011;38614;43.472;23.936;2024-03-17T03:23:41;22.75;;;11.02;;
41829;SDS011;38614;43.472;23.936;2024-03-17T03:26:28;19.50;;;10.70;;
41829;SDS011;38614;43.472;23.936;2024-03-17T03:29:14;17.85;;;11.20;;
41829;SDS011;38614;43.472;23.936;2024-03-17T03:32:01;25.20;;;12.73;;
41829;SDS011;38614;43.472;23.936;2024-03-17T03:34:48;22.33;;;13.48;;
41829;SDS011;38614;43.472;23.936;2024-03-17T03:37:35;26.63;;;12.70;;
41829;SDS011;38614;43.472;23.936;2024-03-17T03:40:22;33.08;;;16.35;;
41829;SDS011;38614;43.472;23.936;2024-03-17T03:43:11;29.40;;;15.02;;
41829;SDS011;38614;43.472;23.936;2024-03-17T03:46:02;36.42;;;17.63;;
41829;SDS011;38614;43.472;23.936;2024-03-17T03:48:49;39.40;;;21.15;;
41829;SDS011;38614;43.472;23.936;2024-03-17T03:51:36;40.65;;;22.20;;
41829;SDS011;38614;43.472;23.936;2024-03-17T03:54:22;41.70;;;22.42;;
41829;SDS011;38614;43.472;23.936;2024-03-17T03:57:09;41.50;;;21.23;;
41829;SDS011;38614;43.472;23.936;2024-03-17T03:59:55;40.08;;;18.58;;
41829;SDS011;38614;43.472;23.936;2024-03-17T04:02:42;43.58;;;20.42;;
41829;SDS011;38614;43.472;23.936;2024-03-17T04:05:29;49.42;;;22.30;;
41829;SDS011;38614;43.472;23.936;2024-03-17T04:08:16;55.78;;;26.33;;
41829;SDS011;38614;43.472;23.936;2024-03-17T04:11:02;62.50;;;30.38;;
41829;SDS011;38614;43.472;23.936;2024-03-17T04:13:49;58.53;;;32.72;;
41829;SDS011;38614;43.472;23.936;2024-03-17T04:16:36;65.85;;;30.15;;
41829;SDS011;38614;43.472;23.936;2024-03-17T04:19:22;60.42;;;29.50;;
41829;SDS011;38614;43.472;23.936;2024-03-17T04:22:09;61.75;;;28.17;;
41829;SDS011;38614;43.472;23.936;2024-03-17T04:24:55;48.50;;;25.13;;
41829;SDS011;38614;43.472;23.936;2024-03-17T04:27:43;49.42;;;23.17;;
41829;SDS011;38614;43.472;23.936;2024-03-17T04:30:30;38.10;;;18.98;;
41829;SDS011;38614;43.472;23.936;2024-03-17T04:33:17;41.45;;;19.73;;
41829;SDS011;38614;43.472;23.936;2024-03-17T04:36:04;34.47;;;19.27;;
41829;SDS011;38614;43.472;23.936;2024-03-17T04:38:50;44.33;;;22.23;;
41829;SDS011;38614;43.472;23.936;2024-03-17T04:41:37;39.47;;;20.98;;
41829;SDS011;38614;43.472;23.936;2024-03-17T04:44:26;50.60;;;21.73;;
41829;SDS011;38614;43.472;23.936;2024-03-17T04:47:12;46.17;;;23.70;;
41829;SDS011;38614;43.472;23.936;2024-03-17T04:50:02;45.80;;;22.88;;
41829;SDS011;38614;43.472;23.936;2024-03-17T04:52:50;40.00;;;21.60;;
41829;SDS011;38614;43.472;23.936;2024-03-17T04:55:37;37.88;;;20.77;;
41829;SDS011;38614;43.472;23.936;2024-03-17T04:58:24;31.35;;;19.00;;
41829;SDS011;38614;43.472;23.936;2024-03-17T05:01:10;42.63;;;20.48;;
41829;SDS011;38614;43.472;23.936;2024-03-17T05:03:58;40.28;;;21.13;;
41829;SDS011;38614;43.472;23.936;2024-03-17T05:06:48;43.10;;;22.05;;
41829;SDS011;38614;43.472;23.936;2024-03-17T05:09:36;55.15;;;25.42;;
41829;SDS011;38614;43.472;23.936;2024-03-17T05:12:22;64.28;;;29.38;;
41829;SDS011;38614;43.472;23.936;2024-03-17T05:15:09;68.85;;;31.77;;
41829;SDS011;38614;43.472;23.936;2024-03-17T05:17:56;66.25;;;26.67;;
41829;SDS011;38614;43.472;23.936;2024-03-17T05:20:43;46.05;;;23.75;;
41829;SDS011;38614;43.472;23.936;2024-03-17T05:23:30;65.40;;;30.50;;
41829;SDS011;38614;43.472;23.936;2024-03-17T05:26:17;70.75;;;32.03;;
41829;SDS011;38614;43.472;23.936;2024-03-17T05:29:04;76.07;;;32.03;;
41829;SDS011;38614;43.472;23.936;2024-03-17T05:31:50;64.28;;;31.92;;
41829;SDS011;38614;43.472;23.936;2024-03-17T05:34:37;59.67;;;27.77;;
41829;SDS011;38614;43.472;23.936;2024-03-17T05:37:24;62.90;;;25.42;;
41829;SDS011;38614;43.472;23.936;2024-03-17T05:40:29;47.65;;;23.48;;
41829;SDS011;38614;43.472;23.936;2024-03-17T05:43:17;47.75;;;24.13;;
41829;SDS011;38614;43.472;23.936;2024-03-17T05:46:04;43.65;;;22.17;;
41829;SDS011;38614;43.472;23.936;2024-03-17T05:48:52;49.10;;;22.77;;
41829;SDS011;38614;43.472;23.936;2024-03-17T05:51:39;34.97;;;19.42;;
41829;SDS011;38614;43.472;23.936;2024-03-17T05:54:28;43.53;;;20.10;;
41829;SDS011;38614;43.472;23.936;2024-03-17T05:57:15;39.15;;;19.55;;
41829;SDS011;38614;43.472;23.936;2024-03-17T06:00:02;42.30;;;19.67;;
41829;SDS011;38614;43.472;23.936;2024-03-17T06:02:57;28.13;;;16.92;;
41829;SDS011;38614;43.472;23.936;2024-03-17T06:05:45;32.17;;;15.48;;
41829;SDS011;38614;43.472;23.936;2024-03-17T06:08:32;26.52;;;13.30;;
41829;SDS011;38614;43.472;23.936;2024-03-17T06:11:21;29.45;;;14.57;;
41829;SDS011;38614;43.472;23.936;2024-03-17T06:14:08;24.40;;;13.82;;
41829;SDS011;38614;43.472;23.936;2024-03-17T06:16:58;22.63;;;12.63;;
41829;SDS011;38614;43.472;23.936;2024-03-17T06:19:44;24.85;;;12.60;;
41829;SDS011;38614;43.472;23.936;2024-03-17T06:22:31;21.25;;;12.60;;
41829;SDS011;38614;43.472;23.936;2024-03-17T06:25:21;23.33;;;12.68;;
41829;SDS011;38614;43.472;23.936;2024-03-17T06:28:13;22.67;;;13.18;;
41829;SDS011;38614;43.472;23.936;2024-03-17T06:31:00;29.65;;;13.38;;
41829;SDS011;38614;43.472;23.936;2024-03-17T06:33:50;24.60;;;13.15;;
41829;SDS011;38614;43.472;23.936;2024-03-17T06:36:36;27.98;;;13.32;;
41829;SDS011;38614;43.472;23.936;2024-03-17T06:39:23;26.00;;;14.40;;
41829;SDS011;38614;43.472;23.936;2024-03-17T06:42:12;30.52;;;16.02;;
41829;SDS011;38614;43.472;23.936;2024-03-17T06:45:02;26.63;;;14.40;;
41829;SDS011;38614;43.472;23.936;2024-03-17T06:47:49;30.25;;;15.75;;
41829;SDS011;38614;43.472;23.936;2024-03-17T06:50:37;32.53;;;16.33;;
41829;SDS011;38614;43.472;23.936;2024-03-17T06:53:25;32.45;;;17.25;;
41829;SDS011;38614;43.472;23.936;2024-03-17T06:56:12;33.50;;;17.88;;
41829;SDS011;38614;43.472;23.936;2024-03-17T06:59:04;44.80;;;20.63;;
41829;SDS011;38614;43.472;23.936;2024-03-17T07:01:51;39.67;;;22.70;;
41829;SDS011;38614;43.472;23.936;2024-03-17T07:04:37;33.45;;;18.73;;
41829;SDS011;38614;43.472;23.936;2024-03-17T07:07:28;37.92;;;18.40;;
41829;SDS011;38614;43.472;23.936;2024-03-17T07:10:15;32.85;;;17.70;;
41829;SDS011;38614;43.472;23.936;2024-03-17T07:13:01;32.33;;;16.48;;
41829;SDS011;38614;43.472;23.936;2024-03-17T07:15:48;25.67;;;15.75;;
41829;SDS011;38614;43.472;23.936;2024-03-17T07:18:35;27.08;;;15.70;;
41829;SDS011;38614;43.472;23.936;2024-03-17T07:21:23;28.85;;;15.13;;
41829;SDS011;38614;43.472;23.936;2024-03-17T07:24:09;27.00;;;13.77;;
41829;SDS011;38614;43.472;23.936;2024-03-17T07:26:56;24.73;;;12.77;;
41829;SDS011;38614;43.472;23.936;2024-03-17T07:29:42;24.67;;;13.73;;
41829;SDS011;38614;43.472;23.936;2024-03-17T07:32:29;24.48;;;13.23;;
41829;SDS011;38614;43.472;23.936;2024-03-17T07:35:18;27.30;;;11.48;;
41829;SDS011;38614;43.472;23.936;2024-03-17T07:38:05;22.45;;;11.98;;
41829;SDS011;38614;43.472;23.936;2024-03-17T07:41:01;19.75;;;11.50;;
41829;SDS011;38614;43.472;23.936;2024-03-17T07:43:48;19.98;;;10.35;;
41829;SDS011;38614;43.472;23.936;2024-03-17T07:46:35;20.35;;;8.05;;
41829;SDS011;38614;43.472;23.936;2024-03-17T07:49:21;17.35;;;8.13;;
41829;SDS011;38614;43.472;23.936;2024-03-17T07:52:08;13.55;;;8.18;;
41829;SDS011;38614;43.472;23.936;2024-03-17T07:54:55;13.27;;;8.05;;
41829;SDS011;38614;43.472;23.936;2024-03-17T07:57:42;17.73;;;9.40;;
41829;SDS011;38614;43.472;23.936;2024-03-17T08:00:29;19.75;;;10.15;;
41829;SDS011;38614;43.472;23.936;2024-03-17T08:03:15;16.40;;;8.85;;
41829;SDS011;38614;43.472;23.936;2024-03-17T08:06:02;18.67;;;8.90;;
41829;SDS011;38614;43.472;23.936;2024-03-17T08:08:49;11.77;;;7.97;;
41829;SDS011;38614;43.472;23.936;2024-03-17T08:11:36;12.60;;;7.55;;
41829;SDS011;38614;43.472;23.936;2024-03-17T08:14:23;14.80;;;8.52;;
41829;SDS011;38614;43.472;23.936;2024-03-17T08:17:09;15.13;;;8.57;;
41829;SDS011;38614;43.472;23.936;2024-03-17T08:19:56;14.40;;;7.85;;
41829;SDS011;38614;43.472;23.936;2024-03-17T08:22:43;13.77;;;7.50;;
41829;SDS011;38614;43.472;23.936;2024-03-17T08:25:29;11.45;;;7.80;;
41829;SDS011;38614;43.472;23.936;2024-03-17T08:28:16;11.02;;;6.47;;
41829;SDS011;38614;43.472;23.936;2024-03-17T08:31:03;10.95;;;6.50;;
41829;SDS011;38614;43.472;23.936;2024-03-17T08:33:50;12.40;;;6.60;;
41829;SDS011;38614;43.472;23.936;2024-03-17T08:36:36;13.63;;;7.28;;
41829;SDS011;38614;43.472;23.936;2024-03-17T08:39:23;9.70;;;5.32;;
41829;SDS011;38614;43.472;23.936;2024-03-17T08:42:10;12.93;;;7.43;;
41829;SDS011;38614;43.472;23.936;2024-03-17T08:44:56;19.23;;;9.18;;
41829;SDS011;38614;43.472;23.936;2024-03-17T08:47:43;21.42;;;8.85;;
41829;SDS011;38614;43.472;23.936;2024-03-17T08:50:29;18.75;;;8.75;;
41829;SDS011;38614;43.472;23.936;2024-03-17T08:53:20;13.82;;;8.48;;
41829;SDS011;38614;43.472;23.936;2024-03-17T08:56:06;16.25;;;8.32;;
41829;SDS011;38614;43.472;23.936;2024-03-17T08:58:53;15.13;;;8.93;;
41829;SDS011;38614;43.472;23.936;2024-03-17T09:01:39;19.48;;;10.27;;
41829;SDS011;38614;43.472;23.936;2024-03-17T09:04:26;16.13;;;8.88;;
41829;SDS011;38614;43.472;23.936;2024-03-17T09:07:13;13.32;;;8.75;;
41829;SDS011;38614;43.472;23.936;2024-03-17T09:10:01;12.65;;;8.23;;
41829;SDS011;38614;43.472;23.936;2024-03-17T09:12:48;18.45;;;8.88;;
41829;SDS011;38614;43.472;23.936;2024-03-17T09:15:35;11.70;;;7.43;;
41829;SDS011;38614;43.472;23.936;2024-03-17T09:18:23;14.75;;;8.65;;
41829;SDS011;38614;43.472;23.936;2024-03-17T09:21:10;15.70;;;7.05;;
41829;SDS011;38614;43.472;23.936;2024-03-17T09:23:59;9.48;;;6.45;;
41829;SDS011;38614;43.472;23.936;2024-03-17T09:26:46;16.42;;;6.72;;
41829;SDS011;38614;43.472;23.936;2024-03-17T09:29:33;12.40;;;5.53;;
41829;SDS011;38614;43.472;23.936;2024-03-17T09:32:20;10.63;;;5.72;;
41829;SDS011;38614;43.472;23.936;2024-03-17T09:35:07;8.65;;;4.60;;
41829;SDS011;38614;43.472;23.936;2024-03-17T09:37:53;5.30;;;2.40;;
41829;SDS011;38614;43.472;23.936;2024-03-17T09:40:45;10.77;;;3.42;;
41829;SDS011;38614;43.472;23.936;2024-03-17T09:43:33;10.15;;;3.72;;
41829;SDS011;38614;43.472;23.936;2024-03-17T09:46:20;10.23;;;4.95;;
41829;SDS011;38614;43.472;23.936;2024-03-17T09:49:14;8.98;;;4.30;;
41829;SDS011;38614;43.472;23.936;2024-03-17T09:52:04;5.15;;;3.38;;
41829;SDS011;38614;43.472;23.936;2024-03-17T09:55:07;10.73;;;3.97;;
41829;SDS011;38614;43.472;23.936;2024-03-17T09:57:55;6.57;;;3.72;;
41829;SDS011;38614;43.472;23.936;2024-03-17T10:00:46;8.35;;;3.55;;
41829;SDS011;38614;43.472;23.936;2024-03-17T10:03:42;8.90;;;5.57;;
41829;SDS011;38614;43.472;23.936;2024-03-17T10:06:31;6.00;;;3.75;;
41829;SDS011;38614;43.472;23.936;2024-03-17T10:09:22;7.38;;;4.22;;
41829;SDS011;38614;43.472;23.936;2024-03-17T10:12:28;7.50;;;4.28;;
41829;SDS011;38614;43.472;23.936;2024-03-17T10:15:16;12.13;;;5.00;;
41829;SDS011;38614;43.472;23.936;2024-03-17T10:18:19;10.10;;;4.68;;
41829;SDS011;38614;43.472;23.936;2024-03-17T10:21:18;9.02;;;4.72;;
41829;SDS011;38614;43.472;23.936;2024-03-17T10:24:11;12.15;;;4.55;;
41829;SDS011;38614;43.472;23.936;2024-03-17T10:26:59;15.88;;;5.20;;
41829;SDS011;38614;43.472;23.936;2024-03-17T10:29:49;6.32;;;4.47;;
41829;SDS011;38614;43.472;23.936;2024-03-17T10:32:36;9.90;;;4.32;;
41829;SDS011;38614;43.472;23.936;2024-03-17T10:35:30;9.57;;;4.85;;
41829;SDS011;38614;43.472;23.936;2024-03-17T10:38:17;8.65;;;5.03;;
41829;SDS011;38614;43.472;23.936;2024-03-17T10:41:04;10.30;;;5.30;;
41829;SDS011;38614;43.472;23.936;2024-03-17T10:43:52;10.45;;;5.55;;
41829;SDS011;38614;43.472;23.936;2024-03-17T10:46:42;9.73;;;4.85;;
41829;SDS011;38614;43.472;23.936;2024-03-17T10:49:30;8.30;;;5.25;;
41829;SDS011;38614;43.472;23.936;2024-03-17T10:52:18;10.10;;;5.70;;
41829;SDS011;38614;43.472;23.936;2024-03-17T10:55:08;7.03;;;4.65;;
41829;SDS011;38614;43.472;23.936;2024-03-17T10:57:57;8.55;;;4.60;;
41829;SDS011;38614;43.472;23.936;2024-03-17T11:00:52;6.07;;;4.63;;
41829;SDS011;38614;43.472;23.936;2024-03-17T11:03:39;8.13;;;4.75;;
41829;SDS011;38614;43.472;23.936;2024-03-17T11:06:27;9.68;;;4.85;;
41829;SDS011;38614;43.472;23.936;2024-03-17T11:09:14;9.20;;;5.65;;
41829;SDS011;38614;43.472;23.936;2024-03-17T11:12:02;7.60;;;4.78;;
41829;SDS011;38614;43.472;23.936;2024-03-17T11:14:49;10.48;;;5.55;;
41829;SDS011;38614;43.472;23.936;2024-03-17T11:17:35;11.15;;;5.50;;
41829;SDS011;38614;43.472;23.936;2024-03-17T11:20:26;8.63;;;5.10;;
41829;SDS011;38614;43.472;23.936;2024-03-17T11:23:25;12.13;;;5.93;;
41829;SDS011;38614;43.472;23.936;2024-03-17T11:26:12;11.13;;;6.05;;
41829;SDS011;38614;43.472;23.936;2024-03-17T11:29:28;11.52;;;6.43;;
41829;SDS011;38614;43.472;23.936;2024-03-17T11:32:24;13.55;;;8.38;;
41829;SDS011;38614;43.472;23.936;2024-03-17T11:35:12;9.52;;;5.85;;
41829;SDS011;38614;43.472;23.936;2024-03-17T11:38:01;7.13;;;4.53;;
41829;SDS011;38614;43.472;23.936;2024-03-17T11:40:49;7.90;;;5.57;;
41829;SDS011;38614;43.472;23.936;2024-03-17T11:43:35;11.30;;;5.60;;
41829;SDS011;38614;43.472;23.936;2024-03-17T11:46:22;8.93;;;5.82;;
41829;SDS011;38614;43.472;23.936;2024-03-17T11:49:24;7.07;;;4.60;;
41829;SDS011;38614;43.472;23.936;2024-03-17T11:54:59;6.63;;;4.82;;
41829;SDS011;38614;43.472;23.936;2024-03-17T11:57:45;7.90;;;5.25;;
41829;SDS011;38614;43.472;23.936;2024-03-17T12:00:32;8.32;;;5.10;;
41829;SDS011;38614;43.472;23.936;2024-03-17T12:03:19;5.25;;;4.25;;
41829;SDS011;38614;43.472;23.936;2024-03-17T12:06:06;8.13;;;4.63;;
41829;SDS011;38614;43.472;23.936;2024-03-17T12:12:21;7.25;;;3.38;;
41829;SDS011;38614;43.472;23.936;2024-03-17T12:15:19;5.05;;;3.08;;
41829;SDS011;38614;43.472;23.936;2024-03-17T12:18:19;7.53;;;2.70;;
41829;SDS011;38614;43.472;23.936;2024-03-17T12:21:16;3.53;;;2.10;;
41829;SDS011;38614;43.472;23.936;2024-03-17T12:24:06;7.13;;;3.22;;
41829;SDS011;38614;43.472;23.936;2024-03-17T12:26:57;2.55;;;1.90;;
41829;SDS011;38614;43.472;23.936;2024-03-17T12:29:49;6.70;;;2.90;;
41829;SDS011;38614;43.472;23.936;2024-03-17T12:32:36;3.33;;;1.90;;
41829;SDS011;38614;43.472;23.936;2024-03-17T12:35:23;4.63;;;2.78;;
41829;SDS011;38614;43.472;23.936;2024-03-17T12:38:23;3.78;;;2.80;;
41829;SDS011;38614;43.472;23.936;2024-03-17T12:41:18;6.38;;;2.60;;
41829;SDS011;38614;43.472;23.936;2024-03-17T12:44:18;6.13;;;2.78;;
41829;SDS011;38614;43.472;23.936;2024-03-17T12:47:30;4.10;;;2.92;;
41829;SDS011;38614;43.472;23.936;2024-03-17T12:50:15;7.07;;;3.25;;
41829;SDS011;38614;43.472;23.936;2024-03-17T12:53:03;5.45;;;3.38;;
41829;SDS011;38614;43.472;23.936;2024-03-17T12:55:53;5.72;;;3.22;;
41829;SDS011;38614;43.472;23.936;2024-03-17T12:59:04;3.45;;;3.15;;
41829;SDS011;38614;43.472;23.936;2024-03-17T13:02:10;4.07;;;2.70;;
41829;SDS011;38614;43.472;23.936;2024-03-17T13:05:13;3.15;;;2.58;;
41829;SDS011;38614;43.472;23.936;2024-03-17T13:08:01;7.35;;;3.15;;
41829;SDS011;38614;43.472;23.936;2024-03-17T13:10:48;5.10;;;3.25;;
41829;SDS011;38614;43.472;23.936;2024-03-17T13:13:35;3.50;;;2.67;;
41829;SDS011;38614;43.472;23.936;2024-03-17T13:16:28;7.53;;;3.38;;
41829;SDS011;38614;43.472;23.936;2024-03-17T13:19:14;6.85;;;3.10;;
41829;SDS011;38614;43.472;23.936;2024-03-17T13:22:01;4.45;;;2.83;;
41829;SDS011;38614;43.472;23.936;2024-03-17T13:24:48;4.85;;;3.35;;
41829;SDS011;38614;43.472;23.936;2024-03-17T13:27:34;4.00;;;2.67;;
41829;SDS011;38614;43.472;23.936;2024-03-17T13:30:22;3.47;;;2.75;;
41829;SDS011;38614;43.472;23.936;2024-03-17T13:33:10;4.25;;;2.88;;
41829;SDS011;38614;43.472;23.936;2024-03-17T13:36:01;6.03;;;3.45;;
41829;SDS011;38614;43.472;23.936;2024-03-17T13:38:52;4.40;;;2.90;;
41829;SDS011;38614;43.472;23.936;2024-03-17T13:41:38;4.60;;;3.03;;
41829;SDS011;38614;43.472;23.936;2024-03-17T13:44:25;3.17;;;2.42;;
41829;SDS011;38614;43.472;23.936;2024-03-17T13:47:13;3.80;;;2.40;;
41829;SDS011;38614;43.472;23.936;2024-03-17T13:50:00;3.65;;;3.17;;
41829;SDS011;38614;43.472;23.936;2024-03-17T13:52:47;4.95;;;3.30;;
41829;SDS011;38614;43.472;23.936;2024-03-17T13:55:34;4.30;;;3.03;;
41829;SDS011;38614;43.472;23.936;2024-03-17T13:58:21;4.15;;;3.42;;
41829;SDS011;38614;43.472;23.936;2024-03-17T14:01:08;8.43;;;3.33;;
41829;SDS011;38614;43.472;23.936;2024-03-17T14:03:55;5.07;;;3.35;;
41829;SDS011;38614;43.472;23.936;2024-03-17T14:06:43;4.13;;;3.17;;
41829;SDS011;38614;43.472;23.936;2024-03-17T14:09:31;4.18;;;3.05;;
41829;SDS011;38614;43.472;23.936;2024-03-17T14:12:17;5.32;;;3.58;;
41829;SDS011;38614;43.472;23.936;2024-03-17T14:15:04;4.10;;;3.03;;
41829;SDS011;38614;43.472;23.936;2024-03-17T14:17:56;4.53;;;3.47;;
41829;SDS011;38614;43.472;23.936;2024-03-17T14:20:43;7.82;;;4.75;;
41829;SDS011;38614;43.472;23.936;2024-03-17T14:23:30;5.03;;;3.25;;
41829;SDS011;38614;43.472;23.936;2024-03-17T14:26:17;3.58;;;3.28;;
41829;SDS011;38614;43.472;23.936;2024-03-17T14:29:04;4.25;;;3.85;;
41829;SDS011;38614;43.472;23.936;2024-03-17T14:31:50;6.13;;;4.18;;
41829;SDS011;38614;43.472;23.936;2024-03-17T14:34:37;8.32;;;4.70;;
41829;SDS011;38614;43.472;23.936;2024-03-17T14:37:24;6.95;;;3.85;;
41829;SDS011;38614;43.472;23.936;2024-03-17T14:40:11;5.75;;;3.90;;
41829;SDS011;38614;43.472;23.936;2024-03-17T14:43:04;7.20;;;5.05;;
41829;SDS011;38614;43.472;23.936;2024-03-17T14:45:51;15.23;;;4.03;;
41829;SDS011;38614;43.472;23.936;2024-03-17T14:48:38;6.55;;;4.68;;
41829;SDS011;38614;43.472;23.936;2024-03-17T14:51:25;8.15;;;4.88;;
41829;SDS011;38614;43.472;23.936;2024-03-17T14:54:11;8.52;;;4.70;;
41829;SDS011;38614;43.472;23.936;2024-03-17T14:57:01;7.85;;;4.47;;
41829;SDS011;38614;43.472;23.936;2024-03-17T14:59:48;7.88;;;5.00;;
41829;SDS011;38614;43.472;23.936;2024-03-17T15:02:34;6.63;;;4.18;;
41829;SDS011;38614;43.472;23.936;2024-03-17T15:05:24;8.95;;;5.22;;
41829;SDS011;38614;43.472;23.936;2024-03-17T15:08:12;8.45;;;4.13;;
41829;SDS011;38614;43.472;23.936;2024-03-17T15:10:59;8.27;;;5.22;;
41829;SDS011;38614;43.472;23.936;2024-03-17T15:13:46;10.55;;;5.80;;
41829;SDS011;38614;43.472;23.936;2024-03-17T15:16:33;9.05;;;5.10;;
41829;SDS011;38614;43.472;23.936;2024-03-17T15:19:21;16.23;;;6.78;;
41829;SDS011;38614;43.472;23.936;2024-03-17T15:22:08;11.93;;;6.18;;
41829;SDS011;38614;43.472;23.936;2024-03-17T15:24:54;8.15;;;5.80;;
41829;SDS011;38614;43.472;23.936;2024-03-17T15:27:41;12.68;;;7.65;;
41829;SDS011;38614;43.472;23.936;2024-03-17T15:30:28;10.30;;;6.40;;
41829;SDS011;38614;43.472;23.936;2024-03-17T15:33:15;6.97;;;5.20;;
41829;SDS011;38614;43.472;23.936;2024-03-17T15:36:05;12.30;;;5.07;;
41829;SDS011;38614;43.472;23.936;2024-03-17T15:38:52;9.00;;;5.18;;
41829;SDS011;38614;43.472;23.936;2024-03-17T15:41:39;6.80;;;4.43;;
41829;SDS011;38614;43.472;23.936;2024-03-17T15:44:25;5.45;;;4.25;;
41829;SDS011;38614;43.472;23.936;2024-03-17T15:47:12;7.93;;;4.47;;
41829;SDS011;38614;43.472;23.936;2024-03-17T15:49:59;10.18;;;3.80;;
41829;SDS011;38614;43.472;23.936;2024-03-17T15:52:46;7.68;;;4.47;;
41829;SDS011;38614;43.472;23.936;2024-03-17T15:55:33;6.60;;;4.32;;
41829;SDS011;38614;43.472;23.936;2024-03-17T15:58:20;5.10;;;4.05;;
41829;SDS011;38614;43.472;23.936;2024-03-17T16:01:07;6.35;;;4.70;;
41829;SDS011;38614;43.472;23.936;2024-03-17T16:03:55;6.43;;;3.70;;
41829;SDS011;38614;43.472;23.936;2024-03-17T16:06:42;5.88;;;4.20;;
41829;SDS011;38614;43.472;23.936;2024-03-17T16:09:29;7.95;;;4.93;;
41829;SDS011;38614;43.472;23.936;2024-03-17T16:12:16;7.22;;;5.30;;
41829;SDS011;38614;43.472;23.936;2024-03-17T16:15:02;8.85;;;5.25;;
41829;SDS011;38614;43.472;23.936;2024-03-17T16:17:50;11.75;;;5.10;;
41829;SDS011;38614;43.472;23.936;2024-03-17T16:23:23;9.20;;;5.63;;
41829;SDS011;38614;43.472;23.936;2024-03-17T16:26:11;13.15;;;8.38;;
41829;SDS011;38614;43.472;23.936;2024-03-17T16:28:58;14.45;;;9.43;;
41829;SDS011;38614;43.472;23.936;2024-03-17T16:31:46;15.18;;;7.88;;
41829;SDS011;38614;43.472;23.936;2024-03-17T16:34:32;9.77;;;7.72;;